Time;durP1;ratioP1;P1;durP2;ratioP2;P2;SDS_P1;SDS_P2;PMS_P1;PMS_P2;Temp;Humidity;BMP_temperature;BMP_pressure;BME280_temperature;BME280_humidity;BME280_pressure;Samples;Min_cycle;Max_cycle;Signal;HPM_P1;HPM_P2
2022/01/14 00:00:48;;;;;;;;;;;1.90;99.90;;;;;;5023971;28;19909;-94
2022/01/14 00:03:13;;;;;;;;;;;1.90;99.90;;;;;;5040395;28;19916;-95
2022/01/14 00:05:39;;;;;;;;;;;2.00;99.90;;;;;;5023448;28;19909;-94
2022/01/14 00:08:05;;;;;;;;;;;2.00;99.90;;;;;;5022031;28;20085;-95
2022/01/14 00:10:32;;;;;;;;;;;2.00;99.90;;;;;;5021231;28;20007;-94
2022/01/14 00:13:06;;;;;;;;;;;2.10;99.90;;;;;;5021470;28;19914;-95
2022/01/14 00:15:34;;;;;;;;;;;2.10;99.90;;;;;;5023782;28;19913;-94
2022/01/14 00:18:00;;;;;;;;;;;2.10;99.90;;;;;;5023747;28;19909;-96
2022/01/14 00:20:28;;;;;;;;;;;2.20;99.90;;;;;;5023662;28;20287;-96
2022/01/14 00:22:54;;;;;;;;;;;2.20;99.90;;;;;;5024961;28;19909;-96
2022/01/14 00:33:27;;;;;;;;;;;2.30;99.90;;;;;;5042258;28;19972;-95
2022/01/14 00:35:52;;;;;;;;;;;2.30;99.90;;;;;;5023798;28;19909;-96
2022/01/14 00:38:18;;;;;;;;;;;2.30;99.90;;;;;;5024114;28;19973;-95
2022/01/14 00:40:49;;;;;;;;;;;2.40;99.90;;;;;;5024245;28;19910;-95
2022/01/14 00:43:15;;;;;;;;;;;2.40;99.90;;;;;;5020503;28;19910;-96
2022/01/14 00:45:42;;;;;;;;;;;2.40;99.90;;;;;;5042951;28;19928;-96
2022/01/14 00:48:08;;;;;;;;;;;2.40;99.90;;;;;;5025115;28;19909;-96
2022/01/14 00:50:34;;;;;;;;;;;2.40;99.90;;;;;;5022736;28;19910;-94
2022/01/14 00:53:00;;;;;;;;;;;2.40;99.90;;;;;;5021099;28;19937;-95
2022/01/14 00:55:40;;;;;;;;;;;2.40;99.90;;;;;;5020802;28;19936;-96
2022/01/14 01:00:59;;;;;;;;;;;2.50;99.90;;;;;;5021811;28;19909;-95
2022/01/14 01:03:27;;;;;;;;;;;2.50;99.90;;;;;;5025135;28;19963;-94
2022/01/14 01:05:55;;;;;;;;;;;2.50;99.90;;;;;;5022202;28;19959;-96
2022/01/14 01:08:24;;;;;;;;;;;2.50;99.90;;;;;;5025739;28;19971;-95
2022/01/14 01:10:51;;;;;;;;;;;2.60;99.90;;;;;;5026433;28;19917;-96
2022/01/14 01:13:32;;;;;;;;;;;2.60;99.90;;;;;;5025861;28;19943;-96
2022/01/14 01:15:57;;;;;;;;;;;2.50;99.90;;;;;;5024144;28;19968;-96
2022/01/14 01:18:26;;;;;;;;;;;2.60;99.90;;;;;;5025042;28;19960;-96
2022/01/14 01:20:52;;;;;;;;;;;2.60;99.90;;;;;;5024172;28;19909;-96
2022/01/14 01:23:17;;;;;;;;;;;2.60;99.90;;;;;;5024952;28;20338;-96
2022/01/14 01:25:49;;;;;;;;;;;2.60;99.90;;;;;;5024953;28;19909;-95
2022/01/14 01:28:14;;;;;;;;;;;2.60;99.90;;;;;;5023430;28;19913;-94
2022/01/14 01:30:57;;;;;;;;;;;2.60;99.90;;;;;;5023072;28;20368;-96
2022/01/14 01:33:22;;;;;;;;;;;2.60;99.90;;;;;;5022739;28;19943;-93
2022/01/14 01:35:48;;;;;;;;;;;2.70;99.90;;;;;;5022008;28;19913;-95
2022/01/14 01:38:16;;;;;;;;;;;2.70;99.90;;;;;;5021932;28;19909;-95
2022/01/14 01:40:43;;;;;;;;;;;2.70;99.90;;;;;;5022220;28;19953;-95
2022/01/14 01:43:10;;;;;;;;;;;2.80;99.90;;;;;;5021449;28;19936;-96
2022/01/14 01:45:47;;;;;;;;;;;2.80;99.90;;;;;;5022742;28;19925;-95
2022/01/14 01:48:13;;;;;;;;;;;2.80;99.90;;;;;;5025013;28;19960;-95
2022/01/14 01:50:39;;;;;;;;;;;2.80;99.90;;;;;;5025478;28;19964;-95
2022/01/14 01:53:04;;;;;;;;;;;2.80;99.90;;;;;;5025589;28;19940;-96
2022/01/14 01:55:30;;;;;;;;;;;2.80;99.90;;;;;;5038291;28;19913;-94
2022/01/14 01:58:06;;;;;;;;;;;2.80;99.90;;;;;;5043015;28;19913;-96
2022/01/14 02:00:31;;;;;;;;;;;2.80;99.90;;;;;;5043492;28;19909;-96
2022/01/14 02:02:58;;;;;;;;;;;2.80;99.90;;;;;;5041195;28;19913;-95
2022/01/14 02:05:25;;;;;;;;;;;2.80;99.90;;;;;;5043032;28;20287;-94
2022/01/14 02:07:50;;;;;;;;;;;2.80;99.90;;;;;;5043154;28;19916;-95
2022/01/14 02:10:19;;;;;;;;;;;2.90;99.90;;;;;;5040676;28;19912;-96
2022/01/14 02:12:53;;;;;;;;;;;2.80;99.90;;;;;;5043730;28;20310;-95
2022/01/14 02:18:24;;;;;;;;;;;2.80;99.90;;;;;;5064262;28;19916;-95
2022/01/14 02:23:45;;;;;;;;;;;2.80;99.90;;;;;;5009422;28;20008;-96
2022/01/14 02:26:14;;;;;;;;;;;2.80;99.90;;;;;;4987152;28;19913;-95
2022/01/14 02:28:40;;;;;;;;;;;2.80;99.90;;;;;;5048082;28;20005;-95
2022/01/14 02:31:06;;;;;;;;;;;2.80;99.90;;;;;;5050101;28;19912;-96
2022/01/14 02:33:32;;;;;;;;;;;2.80;99.90;;;;;;5049650;28;19913;-95
2022/01/14 02:35:58;;;;;;;;;;;2.80;99.90;;;;;;5046696;28;19909;-95
2022/01/14 02:38:26;;;;;;;;;;;2.80;99.90;;;;;;5047462;28;20344;-96
2022/01/14 02:40:52;;;;;;;;;;;2.80;99.90;;;;;;5047529;28;19908;-96
2022/01/14 02:43:20;;;;;;;;;;;2.80;99.90;;;;;;5050258;28;20298;-96
2022/01/14 02:45:55;;;;;;;;;;;2.90;99.90;;;;;;5045075;28;19925;-96
2022/01/14 02:48:22;;;;;;;;;;;2.80;99.90;;;;;;5035400;28;19940;-95
2022/01/14 02:51:11;;;;;;;;;;;2.80;99.90;;;;;;5044372;28;19909;-95
2022/01/14 02:56:14;;;;;;;;;;;2.80;99.90;;;;;;5063825;28;20344;-96
2022/01/14 02:58:42;;;;;;;;;;;2.90;99.90;;;;;;5046898;28;19959;-95
2022/01/14 03:01:12;;;;;;;;;;;2.90;99.90;;;;;;5047106;28;20000;-95
2022/01/14 03:03:43;;;;;;;;;;;2.90;99.90;;;;;;5047886;28;19909;-96
2022/01/14 03:06:09;;;;;;;;;;;3.00;99.90;;;;;;5048446;28;19936;-94
2022/01/14 03:08:35;;;;;;;;;;;3.00;99.90;;;;;;5045662;28;20352;-96
2022/01/14 03:11:12;;;;;;;;;;;2.90;99.90;;;;;;5045713;28;19909;-96
2022/01/14 03:13:39;;;;;;;;;;;2.90;99.90;;;;;;5047805;28;19916;-96
2022/01/14 03:16:05;;;;;;;;;;;3.00;99.90;;;;;;5046125;28;19947;-96
2022/01/14 03:18:41;;;;;;;;;;;3.00;99.90;;;;;;5046693;28;19909;-96
2022/01/14 03:21:11;;;;;;;;;;;3.00;99.90;;;;;;5046979;28;19948;-96
2022/01/14 03:23:46;;;;;;;;;;;3.00;99.90;;;;;;5045919;28;19970;-96
2022/01/14 03:26:13;;;;;;;;;;;3.00;99.90;;;;;;5044653;28;19931;-95
2022/01/14 03:28:39;;;;;;;;;;;3.00;99.90;;;;;;5041972;28;20356;-94
2022/01/14 03:31:04;;;;;;;;;;;3.10;99.90;;;;;;5042305;28;19909;-95
2022/01/14 03:33:30;;;;;;;;;;;3.00;99.90;;;;;;5062118;28;19928;-94
2022/01/14 03:35:56;;;;;;;;;;;3.10;99.90;;;;;;5045367;28;19912;-95
2022/01/14 03:38:21;;;;;;;;;;;3.10;99.90;;;;;;5045033;28;19909;-96
2022/01/14 03:40:47;;;;;;;;;;;3.10;99.90;;;;;;5043504;28;19956;-94
2022/01/14 03:43:13;;;;;;;;;;;3.10;99.90;;;;;;5047084;28;19909;-96
2022/01/14 03:45:39;;;;;;;;;;;3.10;99.90;;;;;;5044991;28;19964;-95
2022/01/14 03:48:06;;;;;;;;;;;3.10;99.90;;;;;;5031894;28;19909;-95
2022/01/14 03:50:32;;;;;;;;;;;3.10;99.90;;;;;;5026066;28;19915;-95
2022/01/14 03:53:01;;;;;;;;;;;3.20;99.90;;;;;;5025809;28;19944;-96
2022/01/14 03:55:27;;;;;;;;;;;3.10;99.90;;;;;;5024401;28;19917;-96
2022/01/14 03:57:52;;;;;;;;;;;3.10;99.90;;;;;;5026984;28;20430;-96
2022/01/14 04:00:20;;;;;;;;;;;3.20;99.90;;;;;;5026924;28;19916;-96
2022/01/14 04:02:46;;;;;;;;;;;3.10;99.90;;;;;;5028165;28;19920;-95
2022/01/14 04:05:12;;;;;;;;;;;3.10;99.90;;;;;;5028500;28;19913;-95
2022/01/14 04:07:38;;;;;;;;;;;3.20;99.90;;;;;;5025887;28;19909;-93
2022/01/14 04:10:04;;;;;;;;;;;3.20;99.90;;;;;;5026342;28;20376;-94
2022/01/14 04:12:44;;;;;;;;;;;3.20;99.90;;;;;;5024117;28;19940;-95
2022/01/14 04:17:57;;;;;;;;;;;3.20;99.90;;;;;;5042820;28;19991;-96
2022/01/14 04:20:22;;;;;;;;;;;3.20;99.90;;;;;;5027464;28;19910;-95
2022/01/14 04:22:48;;;;;;;;;;;3.20;99.90;;;;;;5026757;28;19932;-94
2022/01/14 04:25:14;;;;;;;;;;;3.20;99.90;;;;;;5027239;28;20295;-95
2022/01/14 04:27:40;;;;;;;;;;;3.20;99.90;;;;;;5027004;28;20352;-96
2022/01/14 04:30:06;;;;;;;;;;;3.20;99.90;;;;;;5025741;28;20059;-96
2022/01/14 04:32:34;;;;;;;;;;;3.20;99.90;;;;;;5028373;28;19913;-96
2022/01/14 04:35:00;;;;;;;;;;;3.20;99.90;;;;;;5027724;28;19925;-96
2022/01/14 04:37:25;;;;;;;;;;;3.20;99.90;;;;;;5026114;28;19912;-96
2022/01/14 04:39:51;;;;;;;;;;;3.20;99.90;;;;;;5028906;28;20004;-96
2022/01/14 04:42:17;;;;;;;;;;;3.20;99.90;;;;;;5029606;28;19948;-96
2022/01/14 04:44:42;;;;;;;;;;;3.20;99.90;;;;;;5027031;28;19982;-96
2022/01/14 04:47:18;;;;;;;;;;;3.20;99.90;;;;;;5029530;28;19913;-96
2022/01/14 04:49:49;;;;;;;;;;;3.20;99.90;;;;;;5013169;28;19928;-96
2022/01/14 04:52:14;;;;;;;;;;;3.30;99.90;;;;;;5028382;28;19913;-96
2022/01/14 04:54:40;;;;;;;;;;;3.30;99.90;;;;;;5028156;28;19977;-96
2022/01/14 04:57:06;;;;;;;;;;;3.30;99.90;;;;;;5028124;28;19928;-96
2022/01/14 05:02:13;;;;;;;;;;;;;;;;;;;;;
2022/01/14 05:04:45;;;;;;;;;;;3.30;99.90;;;;;;5216952;23;19981;-96
2022/01/14 05:07:24;;;;;;;;;;;3.40;99.90;;;;;;5020111;28;19917;-96
2022/01/14 05:09:59;;;;;;;;;;;3.40;99.90;;;;;;4998413;28;20067;-96
2022/01/14 05:13:00;;;;;;;;;;;3.30;99.90;;;;;;5013201;28;19913;-96
2022/01/14 05:15:33;;;;;;;;;;;3.40;99.90;;;;;;5012915;28;19912;-96
2022/01/14 05:17:59;;;;;;;;;;;3.30;99.90;;;;;;5015162;28;19905;-96
2022/01/14 05:20:27;;;;;;;;;;;3.40;99.90;;;;;;4998014;28;19914;-96
2022/01/14 05:22:54;;;;;;;;;;;3.30;99.90;;;;;;5014336;28;19917;-96
2022/01/14 05:25:24;;;;;;;;;;;3.30;99.90;;;;;;5017208;28;19970;-96
2022/01/14 05:30:28;;;;;;;;;;;3.30;99.90;;;;;;5064152;23;19937;-96
2022/01/14 05:33:04;;;;;;;;;;;3.30;99.90;;;;;;5046856;23;19976;-96
2022/01/14 05:35:35;;;;;;;;;;;3.30;99.90;;;;;;4996998;28;19916;-95
2022/01/14 05:38:03;;;;;;;;;;;3.40;99.90;;;;;;4996474;28;19898;-96
2022/01/14 05:55:55;;;;;;;;;;;3.50;99.90;;;;;;5097011;28;19908;-96
2022/01/14 05:58:22;;;;;;;;;;;3.50;99.90;;;;;;5160513;23;19926;-96
2022/01/14 06:00:54;;;;;;;;;;;3.50;99.90;;;;;;5042215;28;19913;-96
2022/01/14 06:03:30;;;;;;;;;;;;;;;;;;;;;
2022/01/14 06:06:01;;;;;;;;;;;3.50;99.90;;;;;;5045057;28;19920;-96
2022/01/14 06:15:03;;;;;;;;;;;;;;;;;;;;;
2022/01/14 06:31:00;;;;;;;;;;;3.70;99.90;;;;;;5048280;28;20024;-96
2022/01/14 06:39:39;;;;;;;;;;;3.70;99.90;;;;;;5044907;28;19925;-96
2022/01/14 06:42:08;;;;;;;;;;;3.70;99.90;;;;;;5024067;28;20304;-96
2022/01/14 06:44:49;;;;;;;;;;;;;;;;;;;;;
2022/01/14 06:47:15;;;;;;;;;;;3.70;99.90;;;;;;5054339;28;19933;-96
2022/01/14 08:30:21;;;;;;;;;;;4.10;99.90;;;;;;4995219;28;19930;-95
2022/01/14 08:35:29;;;;;;;;;;;4.20;99.90;;;;;;5146445;23;19926;-96
2022/01/14 08:41:06;;;;;;;;;;;4.20;99.90;;;;;;4933244;28;19910;-96
2022/01/14 08:43:40;;;;;;;;;;;4.20;99.90;;;;;;4975003;28;19910;-96
2022/01/14 08:46:50;;;;;;;;;;;4.20;99.90;;;;;;4973295;28;19960;-96
2022/01/14 09:50:57;;;;;;;;;;;4.40;99.90;;;;;;5248396;23;19926;-96
2022/01/14 09:53:30;;;;;;;;;;;4.30;99.90;;;;;;5015941;28;19930;-96
2022/01/14 10:09:09;;;;;;;;;;;4.40;99.90;;;;;;4997321;28;20296;-91
2022/01/14 10:11:46;;;;;;;;;;;4.40;99.90;;;;;;4981285;28;20411;-91
2022/01/14 10:14:12;;;;;;;;;;;4.40;99.90;;;;;;4979721;28;19914;-90
2022/01/14 10:16:43;;;;;;;;;;;4.40;99.90;;;;;;4962950;28;19910;-92
2022/01/14 10:19:38;;;;;;;;;;;4.40;99.90;;;;;;4978418;28;20004;-92
2022/01/14 10:22:27;;;;;;;;;;;4.40;99.90;;;;;;4961628;28;19965;-92
2022/01/14 10:24:56;;;;;;;;;;;4.40;99.90;;;;;;4962007;28;19911;-92
2022/01/14 10:27:33;;;;;;;;;;;4.40;99.90;;;;;;4961845;28;19910;-92
2022/01/14 10:30:27;;;;;;;;;;;4.50;99.90;;;;;;4966322;28;19917;-91
2022/01/14 10:33:02;;;;;;;;;;;4.50;99.90;;;;;;4962474;28;19918;-93
2022/01/14 10:35:37;;;;;;;;;;;4.50;99.90;;;;;;4979335;28;19940;-92
2022/01/14 10:38:12;;;;;;;;;;;4.50;99.90;;;;;;4972477;28;19910;-90
2022/01/14 10:40:44;;;;;;;;;;;4.50;99.90;;;;;;4980942;28;19910;-91
2022/01/14 10:43:11;;;;;;;;;;;4.50;99.90;;;;;;4969722;28;19914;-92
2022/01/14 10:45:37;;;;;;;;;;;4.60;99.90;;;;;;4962537;28;19910;-92
2022/01/14 10:48:10;;;;;;;;;;;4.60;99.90;;;;;;4961255;28;19910;-92
2022/01/14 10:50:41;;;;;;;;;;;4.60;99.90;;;;;;4961573;28;19985;-92
2022/01/14 10:53:08;;;;;;;;;;;4.70;99.90;;;;;;4961141;28;19980;-92
2022/01/14 10:55:35;;;;;;;;;;;4.60;99.90;;;;;;4961601;28;19944;-89
2022/01/14 10:58:03;;;;;;;;;;;4.70;99.90;;;;;;4966347;28;19910;-90
2022/01/14 11:00:29;;;;;;;;;;;4.70;99.90;;;;;;4972479;28;19960;-90
2022/01/14 11:03:19;;;;;;;;;;;;;;;;;;;;;
2022/01/14 11:05:48;;;;;;;;;;;4.70;99.90;;;;;;4989449;28;19953;-91
2022/01/14 11:08:36;;;;;;;;;;;4.70;99.90;;;;;;4962641;28;19926;-93
2022/01/14 11:11:03;;;;;;;;;;;4.70;99.90;;;;;;4962831;28;19915;-91
2022/01/14 11:13:29;;;;;;;;;;;4.70;99.90;;;;;;4986630;28;19922;-92
2022/01/14 11:15:55;;;;;;;;;;;4.80;99.90;;;;;;4997406;28;19922;-90
2022/01/14 11:18:23;;;;;;;;;;;4.70;99.90;;;;;;4996343;28;20008;-91
2022/01/14 11:23:34;;;;;;;;;;;4.80;99.90;;;;;;4919752;29;19954;-92
2022/01/14 11:26:05;;;;;;;;;;;4.80;99.90;;;;;;4951677;28;19922;-91
2022/01/14 11:28:32;;;;;;;;;;;4.80;99.90;;;;;;4961362;28;19950;-92
2022/01/14 11:30:58;;;;;;;;;;;4.80;99.90;;;;;;4979313;28;20385;-92
2022/01/14 11:33:41;;;;;;;;;;;4.90;99.90;;;;;;4960874;28;19982;-91
2022/01/14 11:36:09;;;;;;;;;;;4.80;99.90;;;;;;4978038;28;19937;-91
2022/01/14 11:38:42;;;;;;;;;;;4.90;99.90;;;;;;4960493;28;19914;-92
2022/01/14 11:41:10;;;;;;;;;;;4.80;99.90;;;;;;4961571;28;19933;-92
2022/01/14 11:43:45;;;;;;;;;;;4.80;99.90;;;;;;4960302;28;19921;-92
2022/01/14 11:46:33;;;;;;;;;;;4.80;99.90;;;;;;4961341;28;19914;-93
2022/01/14 11:49:03;;;;;;;;;;;4.80;99.90;;;;;;4959825;28;19961;-92
2022/01/14 11:51:31;;;;;;;;;;;4.80;99.90;;;;;;4960304;28;19917;-90
2022/01/14 11:54:08;;;;;;;;;;;4.90;99.90;;;;;;4961246;28;20640;-92
2022/01/14 11:56:34;;;;;;;;;;;4.80;99.90;;;;;;4961622;28;19937;-91
2022/01/14 11:59:27;;;;;;;;;;;4.90;99.90;;;;;;4962417;28;20269;-92
2022/01/14 12:01:55;;;;;;;;;;;4.90;99.90;;;;;;4962596;28;19911;-92
2022/01/14 12:04:23;;;;;;;;;;;4.90;99.90;;;;;;4961265;28;20012;-92
2022/01/14 12:06:51;;;;;;;;;;;4.90;99.90;;;;;;4961069;28;19958;-92
2022/01/14 12:09:21;;;;;;;;;;;5.00;99.90;;;;;;4961286;28;20019;-93
2022/01/14 12:12:06;;;;;;;;;;;5.00;99.90;;;;;;4961837;28;19918;-91
2022/01/14 12:14:44;;;;;;;;;;;5.00;99.90;;;;;;4962394;28;19976;-91
2022/01/14 12:17:32;;;;;;;;;;;5.10;99.50;;;;;;4961720;28;19973;-92
2022/01/14 12:20:28;;;;;;;;;;;;;;;;;;;;;
2022/01/14 12:23:27;;;;;;;;;;;5.30;99.00;;;;;;4941222;28;20005;-92
2022/01/14 12:26:23;;;;;;;;;;;5.30;99.30;;;;;;4963845;29;19915;-93
2022/01/14 12:29:13;;;;;;;;;;;5.40;97.90;;;;;;4966649;28;20001;-93
2022/01/14 12:32:00;;;;;;;;;;;5.40;98.40;;;;;;4963004;28;20015;-92
2022/01/14 12:44:02;;;;;;;;;;;5.50;97.10;;;;;;4935097;29;20274;-92
2022/01/14 12:49:08;;;;;;;;;;;5.60;97.30;;;;;;4957607;29;19910;-88
2022/01/14 12:51:34;;;;;;;;;;;5.60;97.30;;;;;;4941016;29;19918;-90
2022/01/14 12:54:02;;;;;;;;;;;5.60;97.20;;;;;;4940398;29;19915;-88
2022/01/14 12:56:29;;;;;;;;;;;5.60;97.30;;;;;;4941515;29;20254;-89
2022/01/14 12:58:56;;;;;;;;;;;5.60;97.30;;;;;;4939847;29;19922;-91
2022/01/14 13:01:28;;;;;;;;;;;5.60;97.30;;;;;;4939406;29;19911;-90
2022/01/14 13:03:55;;;;;;;;;;;5.60;97.80;;;;;;4939853;29;20006;-90
2022/01/14 13:06:23;;;;;;;;;;;5.60;96.90;;;;;;4940453;29;20056;-90
2022/01/14 13:09:04;;;;;;;;;;;5.60;97.00;;;;;;4940249;29;20373;-91
2022/01/14 13:11:32;;;;;;;;;;;5.60;97.00;;;;;;4942239;29;19985;-90
2022/01/14 13:14:15;;;;;;;;;;;5.60;97.30;;;;;;4941341;29;20008;-91
2022/01/14 13:16:45;;;;;;;;;;;5.60;97.20;;;;;;4940252;29;19970;-91
2022/01/14 13:19:33;;;;;;;;;;;5.60;97.10;;;;;;4942243;29;20069;-92
2022/01/14 13:25:22;;;;;;;;;;;5.60;97.00;;;;;;4953042;29;19910;-92
2022/01/14 13:28:19;;;;;;;;;;;5.60;97.10;;;;;;4879694;29;19947;-92
2022/01/14 13:30:56;;;;;;;;;;;5.60;97.30;;;;;;4954925;29;19911;-90
2022/01/14 13:33:29;;;;;;;;;;;5.60;97.40;;;;;;4941937;29;19936;-92
2022/01/14 13:35:57;;;;;;;;;;;5.60;97.30;;;;;;4939857;29;19918;-92
2022/01/14 13:38:26;;;;;;;;;;;5.60;97.20;;;;;;4941830;29;20306;-92
2022/01/14 13:40:55;;;;;;;;;;;5.60;97.30;;;;;;4943799;28;19914;-91
2022/01/14 13:43:53;;;;;;;;;;;5.60;97.40;;;;;;4960277;28;19910;-92
2022/01/14 13:46:38;;;;;;;;;;;5.50;97.60;;;;;;4975382;28;20038;-93
2022/01/14 13:50:20;;;;;;;;;;;;;;;;;;;;;
2022/01/14 13:52:48;;;;;;;;;;;;;;;;;;;;;
2022/01/14 14:17:29;;;;;;;;;;;5.30;98.90;;;;;;4772749;30;19939;-93
2022/01/14 14:20:13;;;;;;;;;;;;;;;;;;;;;
2022/01/14 14:23:05;;;;;;;;;;;5.30;98.80;;;;;;4762925;30;20010;-94
2022/01/14 14:25:59;;;;;;;;;;;5.30;98.80;;;;;;4753452;30;19918;-93
2022/01/14 14:28:32;;;;;;;;;;;5.30;98.80;;;;;;4789431;29;19945;-91
2022/01/14 14:31:07;;;;;;;;;;;5.30;98.80;;;;;;4875923;29;19972;-92
2022/01/14 14:33:36;;;;;;;;;;;5.30;98.80;;;;;;4867832;29;19916;-92
2022/01/14 14:36:25;;;;;;;;;;;5.30;98.80;;;;;;4867858;29;19911;-92
2022/01/14 14:39:11;;;;;;;;;;;5.30;98.80;;;;;;4867583;29;19912;-91
2022/01/14 14:41:46;;;;;;;;;;;5.30;98.90;;;;;;4953144;28;20001;-91
2022/01/14 14:47:07;;;;;;;;;;;;;;;;;;;;;
2022/01/14 14:49:54;;;;;;;;;;;5.40;98.80;;;;;;4980561;28;19910;-93
2022/01/14 14:52:59;;;;;;;;;;;;;;;;;;;;;
2022/01/14 14:55:43;;;;;;;;;;;5.40;99.00;;;;;;4965837;28;20343;-94
2022/01/14 14:58:28;;;;;;;;;;;;;;;;;;;;;
2022/01/14 15:01:30;;;;;;;;;;;;;;;;;;;;;
2022/01/14 15:04:16;;;;;;;;;;;5.30;99.90;;;;;;4965609;28;20009;-93
2022/01/14 15:07:21;;;;;;;;;;;;;;;;;;;;;
2022/01/14 15:10:18;;;;;;;;;;;5.20;99.90;;;;;;4932545;29;20341;-93
2022/01/14 15:18:44;;;;;;;;;;;5.10;99.90;;;;;;4960536;29;19966;-93
2022/01/14 15:21:51;;;;;;;;;;;5.20;99.90;;;;;;4943915;29;19914;-92
2022/01/14 15:24:26;;;;;;;;;;;5.20;99.90;;;;;;4911880;28;19914;-93
2022/01/14 15:27:12;;;;;;;;;;;5.20;99.90;;;;;;4943361;29;19918;-92
2022/01/14 15:29:48;;;;;;;;;;;5.20;99.90;;;;;;4943095;29;19914;-91
2022/01/14 15:32:57;;;;;;;;;;;5.20;99.90;;;;;;4959834;29;19914;-92
2022/01/14 15:35:35;;;;;;;;;;;;;;;;;;;;;
2022/01/14 15:38:22;;;;;;;;;;;;;;;;;;;;;
2022/01/14 15:40:57;;;;;;;;;;;5.20;99.90;;;;;;4960078;29;20009;-92
2022/01/14 15:43:48;;;;;;;;;;;5.20;99.90;;;;;;4942837;29;20015;-91
2022/01/14 15:46:31;;;;;;;;;;;5.20;99.90;;;;;;4959322;29;19915;-93
2022/01/14 15:49:15;;;;;;;;;;;5.10;99.90;;;;;;4943027;29;20001;-93
2022/01/14 15:51:54;;;;;;;;;;;5.10;99.90;;;;;;4973288;28;19985;-93
2022/01/14 15:54:43;;;;;;;;;;;;;;;;;;;;;
2022/01/14 15:57:38;;;;;;;;;;;5.10;99.90;;;;;;4999220;28;19910;-92
2022/01/14 16:03:00;;;;;;;;;;;5.00;99.90;;;;;;4998645;28;20325;-92
2022/01/14 16:05:29;;;;;;;;;;;5.00;99.90;;;;;;4971105;28;19910;-91
2022/01/14 16:14:43;;;;;;;;;;;;;;;;;;;;;
2022/01/14 16:17:12;;;;;;;;;;;5.10;99.90;;;;;;4974292;28;20009;-92
2022/01/14 16:19:59;;;;;;;;;;;5.10;99.90;;;;;;4961048;28;19916;-91
2022/01/14 16:22:32;;;;;;;;;;;5.10;99.90;;;;;;4977633;28;19938;-91
2022/01/14 16:25:17;;;;;;;;;;;;;;;;;;;;;
2022/01/14 16:28:10;;;;;;;;;;;5.10;99.90;;;;;;4977842;28;19932;-91
2022/01/14 16:33:43;;;;;;;;;;;5.10;99.90;;;;;;4967000;28;19918;-91
2022/01/14 16:36:22;;;;;;;;;;;5.10;99.90;;;;;;4959550;28;20277;-94
2022/01/14 16:39:17;;;;;;;;;;;5.10;99.90;;;;;;4961575;28;19910;-92
2022/01/14 16:44:34;;;;;;;;;;;5.10;99.90;;;;;;4968287;28;20337;-92
2022/01/14 16:47:09;;;;;;;;;;;5.10;99.90;;;;;;4962660;28;20012;-91
2022/01/14 16:52:59;;;;;;;;;;;;;;;;;;;;;
2022/01/14 16:55:51;;;;;;;;;;;5.10;99.90;;;;;;4960669;28;20020;-91
2022/01/14 17:01:17;;;;;;;;;;;5.10;99.90;;;;;;4964933;28;19949;-91
2022/01/14 17:04:21;;;;;;;;;;;;;;;;;;;;;
2022/01/14 17:10:02;;;;;;;;;;;5.00;99.20;;;;;;4979947;28;19922;-91
2022/01/14 17:12:38;;;;;;;;;;;5.00;99.50;;;;;;4960575;28;20408;-93
2022/01/14 17:15:34;;;;;;;;;;;5.00;99.40;;;;;;4962599;28;19914;-92
2022/01/14 17:18:04;;;;;;;;;;;5.10;99.00;;;;;;4978184;28;19946;-93
2022/01/14 17:20:30;;;;;;;;;;;5.10;99.10;;;;;;4962243;28;19910;-93
2022/01/14 17:23:09;;;;;;;;;;;5.00;99.10;;;;;;4962509;28;19917;-92
2022/01/14 17:25:54;;;;;;;;;;;;;;;;;;;;;
2022/01/14 17:37:23;;;;;;;;;;;5.10;98.30;;;;;;4911021;29;19952;-94
2022/01/14 17:39:52;;;;;;;;;;;5.00;98.10;;;;;;4885908;29;19949;-93
2022/01/14 17:42:44;;;;;;;;;;;5.10;98.10;;;;;;4884816;29;19912;-93
2022/01/14 17:45:15;;;;;;;;;;;5.10;98.30;;;;;;4906264;28;19918;-93
2022/01/14 17:47:45;;;;;;;;;;;5.10;98.60;;;;;;4963402;28;19915;-93
2022/01/14 17:56:35;;;;;;;;;;;;;;;;;;;;;
2022/01/14 17:59:01;;;;;;;;;;;4.80;99.90;;;;;;4979289;28;20354;-92
2022/01/14 18:01:31;;;;;;;;;;;4.70;99.90;;;;;;4962694;28;19949;-93
2022/01/14 18:04:07;;;;;;;;;;;4.70;99.90;;;;;;4963115;28;20396;-92
2022/01/14 18:06:51;;;;;;;;;;;4.60;99.90;;;;;;4979925;28;19910;-92
2022/01/14 18:09:25;;;;;;;;;;;4.40;99.90;;;;;;4962121;28;19949;-91
2022/01/14 18:12:05;;;;;;;;;;;4.10;99.90;;;;;;4963613;28;19910;-95
2022/01/14 18:14:34;;;;;;;;;;;3.50;99.90;;;;;;4964950;28;20005;-93
2022/01/14 18:17:29;;;;;;;;;;;2.90;99.90;;;;;;4965335;28;19961;-94
2022/01/14 18:19:55;;;;;;;;;;;2.60;99.90;;;;;;4958649;28;19960;-92
2022/01/14 18:25:39;;;;;;;;;;;2.30;99.90;;;;;;4900423;29;20059;-92
2022/01/14 18:28:50;;;;;;;;;;;2.30;99.90;;;;;;4966038;28;19971;-92
2022/01/14 18:31:16;;;;;;;;;;;2.40;99.90;;;;;;4978297;28;19918;-93
2022/01/14 18:34:10;;;;;;;;;;;2.50;99.90;;;;;;4980591;28;20358;-90
2022/01/14 18:36:53;;;;;;;;;;;2.60;99.90;;;;;;4963459;28;19915;-94
2022/01/14 18:39:19;;;;;;;;;;;2.60;99.90;;;;;;4979293;28;19914;-90
2022/01/14 18:41:54;;;;;;;;;;;2.50;99.90;;;;;;4961865;28;20261;-92
2022/01/14 18:44:22;;;;;;;;;;;2.50;99.90;;;;;;4961975;28;20350;-92
2022/01/14 18:47:08;;;;;;;;;;;2.40;99.90;;;;;;4961378;28;19918;-90
2022/01/14 18:49:37;;;;;;;;;;;2.40;99.90;;;;;;4962648;28;19910;-90
2022/01/14 18:52:06;;;;;;;;;;;2.40;99.60;;;;;;4970129;28;19918;-90
2022/01/14 18:54:37;;;;;;;;;;;2.40;99.70;;;;;;4961771;28;19965;-91
2022/01/14 18:57:11;;;;;;;;;;;2.40;99.30;;;;;;4978936;28;19997;-90
2022/01/14 18:59:40;;;;;;;;;;;2.50;99.90;;;;;;4960132;28;19911;-92
2022/01/14 19:02:06;;;;;;;;;;;2.50;98.90;;;;;;4945499;28;20372;-90
2022/01/14 19:04:35;;;;;;;;;;;2.50;99.50;;;;;;4960159;28;20009;-89
2022/01/14 19:07:04;;;;;;;;;;;2.60;98.90;;;;;;4960513;28;19957;-90
2022/01/14 19:09:32;;;;;;;;;;;2.60;98.30;;;;;;4961539;28;19917;-90
2022/01/14 19:12:01;;;;;;;;;;;2.60;99.00;;;;;;4978688;28;19918;-89
2022/01/14 19:14:27;;;;;;;;;;;2.70;97.30;;;;;;4960847;28;19968;-89
2022/01/14 19:17:04;;;;;;;;;;;;;;;;;;;;;
2022/01/14 19:19:33;;;;;;;;;;;2.80;97.50;;;;;;4977857;28;19910;-89
2022/01/14 19:22:07;;;;;;;;;;;2.80;95.90;;;;;;4977979;28;19914;-89
2022/01/14 19:24:33;;;;;;;;;;;2.80;97.20;;;;;;4977124;28;20384;-90
2022/01/14 19:27:01;;;;;;;;;;;2.80;96.40;;;;;;4977792;28;19914;-90
2022/01/14 19:29:27;;;;;;;;;;;2.80;98.20;;;;;;4960984;28;19922;-89
2022/01/14 19:31:53;;;;;;;;;;;2.80;95.60;;;;;;4961186;28;19949;-90
2022/01/14 19:34:19;;;;;;;;;;;2.80;96.10;;;;;;4961450;28;20305;-90
2022/01/14 19:36:45;;;;;;;;;;;2.80;95.90;;;;;;4978191;28;19937;-90
2022/01/14 19:39:11;;;;;;;;;;;2.80;95.70;;;;;;4960432;28;19910;-90
2022/01/14 19:41:42;;;;;;;;;;;2.80;95.90;;;;;;4960152;28;19918;-90
2022/01/14 19:44:31;;;;;;;;;;;2.80;96.90;;;;;;4946432;28;19921;-92
2022/01/14 19:46:57;;;;;;;;;;;2.80;97.30;;;;;;4960252;28;19911;-90
2022/01/14 19:49:23;;;;;;;;;;;2.80;97.40;;;;;;4944387;28;20361;-91
2022/01/14 19:51:52;;;;;;;;;;;2.80;94.50;;;;;;4937298;28;19921;-90
2022/01/14 19:54:18;;;;;;;;;;;2.90;96.20;;;;;;4941102;29;20057;-89
2022/01/14 19:56:52;;;;;;;;;;;2.80;91.70;;;;;;4960202;28;20306;-89
2022/01/14 19:59:18;;;;;;;;;;;2.90;93.60;;;;;;4960542;28;19921;-90
2022/01/14 20:01:47;;;;;;;;;;;2.90;85.30;;;;;;4963635;28;19914;-90
2022/01/14 20:04:16;;;;;;;;;;;2.90;83.20;;;;;;4959702;28;19920;-89
2022/01/14 20:06:43;;;;;;;;;;;2.90;84.80;;;;;;4960463;28;19961;-90
2022/01/14 20:09:11;;;;;;;;;;;2.80;88.00;;;;;;4959968;28;19910;-89
2022/01/14 20:11:44;;;;;;;;;;;2.80;87.00;;;;;;4962106;28;19926;-89
2022/01/14 20:14:27;;;;;;;;;;;2.80;89.30;;;;;;4956338;28;19929;-91
2022/01/14 20:16:53;;;;;;;;;;;2.80;90.40;;;;;;4957453;29;19933;-91
2022/01/14 20:19:38;;;;;;;;;;;2.70;90.00;;;;;;4956864;28;20369;-91
2022/01/14 20:22:08;;;;;;;;;;;2.70;90.80;;;;;;4957099;28;20376;-92
2022/01/14 20:24:39;;;;;;;;;;;2.70;91.80;;;;;;4959464;28;19918;-90
2022/01/14 20:27:31;;;;;;;;;;;2.60;93.10;;;;;;4969507;28;20008;-92
2022/01/14 20:30:17;;;;;;;;;;;2.60;94.90;;;;;;4938663;28;20013;-93
2022/01/14 20:33:31;;;;;;;;;;;2.50;94.50;;;;;;4982540;28;20480;-95
2022/01/14 20:36:11;;;;;;;;;;;;;;;;;;;;;
2022/01/14 20:38:42;;;;;;;;;;;2.50;92.40;;;;;;4992242;28;19913;-90
2022/01/14 20:41:10;;;;;;;;;;;2.50;89.00;;;;;;4979994;28;19913;-90
2022/01/14 20:43:42;;;;;;;;;;;2.50;88.20;;;;;;4980743;28;20427;-92
2022/01/14 20:46:14;;;;;;;;;;;2.50;88.10;;;;;;4983113;28;19910;-94
2022/01/14 20:49:01;;;;;;;;;;;;;;;;;;;;;
2022/01/14 20:51:45;;;;;;;;;;;2.50;90.00;;;;;;4992035;28;20086;-95
2022/01/14 20:54:11;;;;;;;;;;;2.50;89.30;;;;;;4969895;28;19915;-92
2022/01/14 20:56:37;;;;;;;;;;;2.60;92.00;;;;;;4968552;28;19937;-95
2022/01/14 20:59:04;;;;;;;;;;;2.50;90.30;;;;;;4978538;28;19914;-91
2022/01/14 21:01:30;;;;;;;;;;;2.50;92.00;;;;;;4964121;28;19913;-93
2022/01/14 21:03:56;;;;;;;;;;;2.50;93.00;;;;;;4984868;28;19913;-93
2022/01/14 21:06:22;;;;;;;;;;;2.50;90.90;;;;;;4981194;28;19914;-94
2022/01/14 21:08:50;;;;;;;;;;;2.50;91.30;;;;;;4963672;28;20280;-96
2022/01/14 21:11:15;;;;;;;;;;;2.50;92.60;;;;;;4965795;28;20064;-93
2022/01/14 21:13:41;;;;;;;;;;;2.50;93.50;;;;;;4950375;28;19985;-93
2022/01/14 21:16:07;;;;;;;;;;;2.50;93.00;;;;;;4956322;28;19954;-95